sensor_id;sensor_type;location;lat;lon;timestamp;P1;durP1;ratioP1;P2;durP2;ratioP2
35602;SDS011;21725;50.836;4.368;2023-02-28T00:00:29;8.02;;;4.47;;
35602;SDS011;21725;50.836;4.368;2023-02-28T00:03:31;10.10;;;5.22;;
35602;SDS011;21725;50.836;4.368;2023-02-28T00:06:35;7.80;;;5.20;;
35602;SDS011;21725;50.836;4.368;2023-02-28T00:09:35;7.88;;;4.28;;
35602;SDS011;21725;50.836;4.368;2023-02-28T00:12:36;7.47;;;4.15;;
35602;SDS011;21725;50.836;4.368;2023-02-28T00:15:38;9.45;;;5.07;;
35602;SDS011;21725;50.836;4.368;2023-02-28T00:18:39;8.63;;;4.40;;
35602;SDS011;21725;50.836;4.368;2023-02-28T00:21:40;7.57;;;4.53;;
35602;SDS011;21725;50.836;4.368;2023-02-28T00:24:42;8.55;;;4.97;;
35602;SDS011;21725;50.836;4.368;2023-02-28T00:27:43;8.45;;;5.78;;
35602;SDS011;21725;50.836;4.368;2023-02-28T00:30:44;15.75;;;9.48;;
35602;SDS011;21725;50.836;4.368;2023-02-28T00:33:45;28.30;;;14.95;;
35602;SDS011;21725;50.836;4.368;2023-02-28T00:36:46;28.67;;;17.08;;
35602;SDS011;21725;50.836;4.368;2023-02-28T00:39:49;23.65;;;16.35;;
35602;SDS011;21725;50.836;4.368;2023-02-28T00:42:50;26.92;;;13.68;;
35602;SDS011;21725;50.836;4.368;2023-02-28T00:45:51;19.48;;;12.55;;
35602;SDS011;21725;50.836;4.368;2023-02-28T00:48:52;18.23;;;11.00;;
35602;SDS011;21725;50.836;4.368;2023-02-28T00:51:53;16.75;;;10.68;;
35602;SDS011;21725;50.836;4.368;2023-02-28T00:54:55;14.93;;;9.50;;
35602;SDS011;21725;50.836;4.368;2023-02-28T00:57:56;13.90;;;7.30;;
35602;SDS011;21725;50.836;4.368;2023-02-28T01:00:56;13.35;;;7.78;;
35602;SDS011;21725;50.836;4.368;2023-02-28T01:03:57;11.75;;;6.80;;
35602;SDS011;21725;50.836;4.368;2023-02-28T01:06:58;9.45;;;5.97;;
35602;SDS011;21725;50.836;4.368;2023-02-28T01:09:58;10.50;;;5.70;;
35602;SDS011;21725;50.836;4.368;2023-02-28T01:12:59;13.30;;;6.38;;
35602;SDS011;21725;50.836;4.368;2023-02-28T01:16:01;11.13;;;6.10;;
35602;SDS011;21725;50.836;4.368;2023-02-28T01:19:02;10.63;;;5.40;;
35602;SDS011;21725;50.836;4.368;2023-02-28T01:22:03;10.80;;;5.55;;
35602;SDS011;21725;50.836;4.368;2023-02-28T01:25:05;7.80;;;5.13;;
35602;SDS011;21725;50.836;4.368;2023-02-28T01:28:06;9.75;;;5.20;;
35602;SDS011;21725;50.836;4.368;2023-02-28T01:31:08;8.32;;;4.78;;
35602;SDS011;21725;50.836;4.368;2023-02-28T01:34:09;7.18;;;4.97;;
35602;SDS011;21725;50.836;4.368;2023-02-28T01:37:10;14.35;;;6.32;;
35602;SDS011;21725;50.836;4.368;2023-02-28T01:40:11;10.27;;;5.10;;
35602;SDS011;21725;50.836;4.368;2023-02-28T01:43:26;11.90;;;5.55;;
35602;SDS011;21725;50.836;4.368;2023-02-28T01:46:28;12.73;;;5.93;;
35602;SDS011;21725;50.836;4.368;2023-02-28T01:49:33;8.43;;;5.50;;
35602;SDS011;21725;50.836;4.368;2023-02-28T01:52:34;7.80;;;5.00;;
35602;SDS011;21725;50.836;4.368;2023-02-28T01:55:35;13.77;;;6.47;;
35602;SDS011;21725;50.836;4.368;2023-02-28T01:58:37;9.65;;;6.25;;
35602;SDS011;21725;50.836;4.368;2023-02-28T02:01:39;13.05;;;5.88;;
35602;SDS011;21725;50.836;4.368;2023-02-28T02:04:41;8.32;;;5.50;;
35602;SDS011;21725;50.836;4.368;2023-02-28T02:07:51;10.40;;;5.25;;
35602;SDS011;21725;50.836;4.368;2023-02-28T02:10:55;11.18;;;5.90;;
35602;SDS011;21725;50.836;4.368;2023-02-28T02:20:31;11.63;;;5.88;;
35602;SDS011;21725;50.836;4.368;2023-02-28T02:38:00;11.27;;;6.40;;
35602;SDS011;21725;50.836;4.368;2023-02-28T02:44:49;11.48;;;6.90;;
35602;SDS011;21725;50.836;4.368;2023-02-28T02:48:12;12.70;;;6.10;;
35602;SDS011;21725;50.836;4.368;2023-02-28T02:51:17;10.82;;;6.07;;
35602;SDS011;21725;50.836;4.368;2023-02-28T02:57:24;12.40;;;5.93;;
35602;SDS011;21725;50.836;4.368;2023-02-28T03:00:31;12.93;;;6.60;;
35602;SDS011;21725;50.836;4.368;2023-02-28T03:03:36;10.65;;;6.40;;
35602;SDS011;21725;50.836;4.368;2023-02-28T03:06:37;10.15;;;6.55;;
35602;SDS011;21725;50.836;4.368;2023-02-28T03:09:38;12.52;;;8.07;;
35602;SDS011;21725;50.836;4.368;2023-02-28T03:12:40;11.65;;;6.55;;
35602;SDS011;21725;50.836;4.368;2023-02-28T03:25:39;11.70;;;7.05;;
35602;SDS011;21725;50.836;4.368;2023-02-28T03:32:02;10.50;;;6.40;;
35602;SDS011;21725;50.836;4.368;2023-02-28T03:35:32;14.98;;;7.53;;
35602;SDS011;21725;50.836;4.368;2023-02-28T03:38:42;13.70;;;8.25;;
35602;SDS011;21725;50.836;4.368;2023-02-28T03:41:52;14.45;;;6.55;;
35602;SDS011;21725;50.836;4.368;2023-02-28T03:45:02;11.32;;;8.40;;
35602;SDS011;21725;50.836;4.368;2023-02-28T03:51:31;10.52;;;7.57;;
35602;SDS011;21725;50.836;4.368;2023-02-28T03:54:38;11.23;;;6.90;;
35602;SDS011;21725;50.836;4.368;2023-02-28T04:00:49;12.27;;;8.02;;
35602;SDS011;21725;50.836;4.368;2023-02-28T04:03:55;12.57;;;7.25;;
35602;SDS011;21725;50.836;4.368;2023-02-28T04:07:04;10.43;;;7.25;;
35602;SDS011;21725;50.836;4.368;2023-02-28T04:10:08;14.43;;;8.25;;
35602;SDS011;21725;50.836;4.368;2023-02-28T04:13:10;14.18;;;7.82;;
35602;SDS011;21725;50.836;4.368;2023-02-28T04:16:10;13.85;;;7.47;;
35602;SDS011;21725;50.836;4.368;2023-02-28T04:19:12;14.00;;;7.57;;
35602;SDS011;21725;50.836;4.368;2023-02-28T04:22:14;10.93;;;7.53;;
35602;SDS011;21725;50.836;4.368;2023-02-28T04:25:14;16.88;;;8.50;;
35602;SDS011;21725;50.836;4.368;2023-02-28T04:28:15;18.10;;;8.25;;
35602;SDS011;21725;50.836;4.368;2023-02-28T04:31:16;11.07;;;7.85;;
35602;SDS011;21725;50.836;4.368;2023-02-28T04:34:17;13.30;;;8.45;;
35602;SDS011;21725;50.836;4.368;2023-02-28T04:37:19;10.82;;;7.82;;
35602;SDS011;21725;50.836;4.368;2023-02-28T04:40:20;14.05;;;8.20;;
35602;SDS011;21725;50.836;4.368;2023-02-28T04:43:23;12.88;;;8.18;;
35602;SDS011;21725;50.836;4.368;2023-02-28T04:46:35;13.30;;;8.77;;
35602;SDS011;21725;50.836;4.368;2023-02-28T04:49:36;16.25;;;8.77;;
35602;SDS011;21725;50.836;4.368;2023-02-28T04:52:36;14.75;;;8.98;;
35602;SDS011;21725;50.836;4.368;2023-02-28T04:55:37;12.45;;;8.70;;
35602;SDS011;21725;50.836;4.368;2023-02-28T04:58:40;16.60;;;9.43;;
35602;SDS011;21725;50.836;4.368;2023-02-28T05:24:11;12.70;;;8.30;;
35602;SDS011;21725;50.836;4.368;2023-02-28T05:27:12;17.45;;;10.13;;
35602;SDS011;21725;50.836;4.368;2023-02-28T05:30:13;13.68;;;9.15;;
35602;SDS011;21725;50.836;4.368;2023-02-28T05:33:14;14.02;;;8.95;;
35602;SDS011;21725;50.836;4.368;2023-02-28T05:36:14;12.75;;;8.02;;
35602;SDS011;21725;50.836;4.368;2023-02-28T05:39:15;12.02;;;8.15;;
35602;SDS011;21725;50.836;4.368;2023-02-28T05:42:16;14.73;;;8.73;;
35602;SDS011;21725;50.836;4.368;2023-02-28T05:45:16;12.95;;;8.82;;
35602;SDS011;21725;50.836;4.368;2023-02-28T05:48:17;13.45;;;8.85;;
35602;SDS011;21725;50.836;4.368;2023-02-28T05:51:18;11.93;;;8.63;;
35602;SDS011;21725;50.836;4.368;2023-02-28T05:54:19;16.60;;;8.55;;
35602;SDS011;21725;50.836;4.368;2023-02-28T05:57:19;15.57;;;7.88;;
35602;SDS011;21725;50.836;4.368;2023-02-28T06:00:20;13.75;;;7.45;;
35602;SDS011;21725;50.836;4.368;2023-02-28T06:03:21;25.73;;;9.10;;
35602;SDS011;21725;50.836;4.368;2023-02-28T06:06:22;14.32;;;8.07;;
35602;SDS011;21725;50.836;4.368;2023-02-28T06:09:23;10.85;;;8.23;;
35602;SDS011;21725;50.836;4.368;2023-02-28T06:12:23;16.00;;;9.57;;
35602;SDS011;21725;50.836;4.368;2023-02-28T06:15:24;13.98;;;8.15;;
35602;SDS011;21725;50.836;4.368;2023-02-28T06:18:25;11.90;;;7.68;;
35602;SDS011;21725;50.836;4.368;2023-02-28T06:21:26;15.25;;;8.50;;
35602;SDS011;21725;50.836;4.368;2023-02-28T06:24:27;12.98;;;8.00;;
35602;SDS011;21725;50.836;4.368;2023-02-28T06:27:28;14.93;;;7.82;;
35602;SDS011;21725;50.836;4.368;2023-02-28T06:30:30;11.30;;;7.90;;
35602;SDS011;21725;50.836;4.368;2023-02-28T06:33:31;12.20;;;6.82;;
35602;SDS011;21725;50.836;4.368;2023-02-28T06:36:34;16.17;;;8.38;;
35602;SDS011;21725;50.836;4.368;2023-02-28T06:39:34;13.02;;;7.72;;
35602;SDS011;21725;50.836;4.368;2023-02-28T06:42:35;13.77;;;7.72;;
35602;SDS011;21725;50.836;4.368;2023-02-28T06:45:36;15.05;;;7.93;;
35602;SDS011;21725;50.836;4.368;2023-02-28T06:48:37;12.13;;;7.72;;
35602;SDS011;21725;50.836;4.368;2023-02-28T06:51:39;12.50;;;7.88;;
35602;SDS011;21725;50.836;4.368;2023-02-28T06:54:41;13.93;;;7.25;;
35602;SDS011;21725;50.836;4.368;2023-02-28T06:57:42;12.57;;;8.48;;
35602;SDS011;21725;50.836;4.368;2023-02-28T07:00:43;12.02;;;6.78;;
35602;SDS011;21725;50.836;4.368;2023-02-28T07:03:45;12.13;;;7.82;;
35602;SDS011;21725;50.836;4.368;2023-02-28T07:06:46;10.25;;;6.40;;
35602;SDS011;21725;50.836;4.368;2023-02-28T07:09:47;13.88;;;8.75;;
35602;SDS011;21725;50.836;4.368;2023-02-28T07:12:47;13.13;;;7.90;;
35602;SDS011;21725;50.836;4.368;2023-02-28T07:15:55;15.40;;;7.78;;
35602;SDS011;21725;50.836;4.368;2023-02-28T07:18:58;15.38;;;8.48;;
35602;SDS011;21725;50.836;4.368;2023-02-28T07:21:59;15.70;;;7.40;;
35602;SDS011;21725;50.836;4.368;2023-02-28T07:24:59;14.10;;;7.93;;
35602;SDS011;21725;50.836;4.368;2023-02-28T07:28:00;14.93;;;7.88;;
35602;SDS011;21725;50.836;4.368;2023-02-28T07:31:07;16.80;;;7.35;;
35602;SDS011;21725;50.836;4.368;2023-02-28T07:34:09;13.35;;;8.90;;
35602;SDS011;21725;50.836;4.368;2023-02-28T07:37:10;10.85;;;6.50;;
35602;SDS011;21725;50.836;4.368;2023-02-28T07:40:11;11.02;;;7.30;;
35602;SDS011;21725;50.836;4.368;2023-02-28T07:43:12;13.88;;;8.10;;
35602;SDS011;21725;50.836;4.368;2023-02-28T07:46:14;14.27;;;6.72;;
35602;SDS011;21725;50.836;4.368;2023-02-28T07:49:16;11.73;;;6.72;;
35602;SDS011;21725;50.836;4.368;2023-02-28T07:52:16;8.10;;;4.90;;
35602;SDS011;21725;50.836;4.368;2023-02-28T07:55:17;10.27;;;6.28;;
35602;SDS011;21725;50.836;4.368;2023-02-28T07:58:18;13.38;;;6.45;;
35602;SDS011;21725;50.836;4.368;2023-02-28T08:01:19;31.98;;;8.07;;
35602;SDS011;21725;50.836;4.368;2023-02-28T08:04:20;9.50;;;5.05;;
35602;SDS011;21725;50.836;4.368;2023-02-28T08:07:21;16.42;;;6.22;;
35602;SDS011;21725;50.836;4.368;2023-02-28T08:10:22;8.80;;;4.63;;
35602;SDS011;21725;50.836;4.368;2023-02-28T08:13:23;10.30;;;5.10;;
35602;SDS011;21725;50.836;4.368;2023-02-28T08:16:24;10.60;;;4.82;;
35602;SDS011;21725;50.836;4.368;2023-02-28T08:19:25;8.63;;;4.80;;
35602;SDS011;21725;50.836;4.368;2023-02-28T08:22:26;10.90;;;5.57;;
35602;SDS011;21725;50.836;4.368;2023-02-28T08:25:27;8.55;;;4.50;;
35602;SDS011;21725;50.836;4.368;2023-02-28T08:28:27;7.28;;;4.68;;
35602;SDS011;21725;50.836;4.368;2023-02-28T08:31:31;7.35;;;3.60;;
35602;SDS011;21725;50.836;4.368;2023-02-28T08:34:39;7.25;;;4.38;;
35602;SDS011;21725;50.836;4.368;2023-02-28T08:37:43;9.85;;;5.32;;
35602;SDS011;21725;50.836;4.368;2023-02-28T08:40:44;11.10;;;4.85;;
35602;SDS011;21725;50.836;4.368;2023-02-28T08:43:45;13.75;;;4.88;;
35602;SDS011;21725;50.836;4.368;2023-02-28T08:46:45;6.53;;;4.20;;
35602;SDS011;21725;50.836;4.368;2023-02-28T08:49:46;7.47;;;4.53;;
35602;SDS011;21725;50.836;4.368;2023-02-28T08:52:47;8.02;;;4.78;;
35602;SDS011;21725;50.836;4.368;2023-02-28T08:55:55;12.35;;;4.22;;
35602;SDS011;21725;50.836;4.368;2023-02-28T08:58:57;7.15;;;4.50;;
35602;SDS011;21725;50.836;4.368;2023-02-28T09:01:58;6.72;;;4.22;;
35602;SDS011;21725;50.836;4.368;2023-02-28T09:04:58;7.38;;;4.30;;
35602;SDS011;21725;50.836;4.368;2023-02-28T09:07:59;6.60;;;3.90;;
35602;SDS011;21725;50.836;4.368;2023-02-28T09:11:00;8.93;;;4.75;;
35602;SDS011;21725;50.836;4.368;2023-02-28T09:14:01;7.10;;;4.00;;
35602;SDS011;21725;50.836;4.368;2023-02-28T09:17:05;17.17;;;7.32;;
35602;SDS011;21725;50.836;4.368;2023-02-28T09:20:06;10.57;;;4.15;;
35602;SDS011;21725;50.836;4.368;2023-02-28T09:23:08;13.00;;;4.32;;
35602;SDS011;21725;50.836;4.368;2023-02-28T09:26:13;6.28;;;3.75;;
35602;SDS011;21725;50.836;4.368;2023-02-28T09:29:24;7.70;;;4.05;;
35602;SDS011;21725;50.836;4.368;2023-02-28T09:32:25;7.90;;;3.75;;
35602;SDS011;21725;50.836;4.368;2023-02-28T09:35:26;8.45;;;3.67;;
35602;SDS011;21725;50.836;4.368;2023-02-28T09:38:27;10.85;;;4.32;;
35602;SDS011;21725;50.836;4.368;2023-02-28T09:41:29;9.30;;;3.90;;
35602;SDS011;21725;50.836;4.368;2023-02-28T09:44:43;7.30;;;4.10;;
35602;SDS011;21725;50.836;4.368;2023-02-28T09:47:47;7.05;;;3.67;;
35602;SDS011;21725;50.836;4.368;2023-02-28T09:51:00;9.57;;;3.90;;
35602;SDS011;21725;50.836;4.368;2023-02-28T09:54:05;9.45;;;5.13;;
35602;SDS011;21725;50.836;4.368;2023-02-28T09:57:07;4.53;;;2.92;;
35602;SDS011;21725;50.836;4.368;2023-02-28T10:00:22;17.25;;;4.28;;
35602;SDS011;21725;50.836;4.368;2023-02-28T10:03:30;6.30;;;3.03;;
35602;SDS011;21725;50.836;4.368;2023-02-28T10:06:42;5.30;;;3.20;;
35602;SDS011;21725;50.836;4.368;2023-02-28T10:09:50;10.73;;;4.50;;
35602;SDS011;21725;50.836;4.368;2023-02-28T10:12:56;29.88;;;5.85;;
35602;SDS011;21725;50.836;4.368;2023-02-28T10:16:07;13.10;;;3.78;;
35602;SDS011;21725;50.836;4.368;2023-02-28T10:19:33;11.02;;;3.78;;
35602;SDS011;21725;50.836;4.368;2023-02-28T10:22:52;12.82;;;4.18;;
35602;SDS011;21725;50.836;4.368;2023-02-28T10:26:01;5.10;;;2.80;;
35602;SDS011;21725;50.836;4.368;2023-02-28T10:29:11;5.80;;;3.33;;
35602;SDS011;21725;50.836;4.368;2023-02-28T10:32:14;3.83;;;2.67;;
35602;SDS011;21725;50.836;4.368;2023-02-28T10:35:26;3.97;;;2.80;;
35602;SDS011;21725;50.836;4.368;2023-02-28T10:38:28;5.07;;;2.70;;
35602;SDS011;21725;50.836;4.368;2023-02-28T10:41:34;29.58;;;5.53;;
35602;SDS011;21725;50.836;4.368;2023-02-28T10:44:41;41.15;;;6.43;;
35602;SDS011;21725;50.836;4.368;2023-02-28T10:51:02;6.07;;;2.65;;
35602;SDS011;21725;50.836;4.368;2023-02-28T10:54:36;5.40;;;3.00;;
35602;SDS011;21725;50.836;4.368;2023-02-28T10:57:37;11.80;;;4.05;;
35602;SDS011;21725;50.836;4.368;2023-02-28T11:23:12;5.57;;;3.40;;
35602;SDS011;21725;50.836;4.368;2023-02-28T11:26:14;5.70;;;2.88;;
35602;SDS011;21725;50.836;4.368;2023-02-28T11:29:26;6.22;;;3.08;;
35602;SDS011;21725;50.836;4.368;2023-02-28T11:32:29;6.80;;;2.88;;
35602;SDS011;21725;50.836;4.368;2023-02-28T11:35:31;5.43;;;2.50;;
35602;SDS011;21725;50.836;4.368;2023-02-28T11:38:34;4.47;;;2.95;;
35602;SDS011;21725;50.836;4.368;2023-02-28T11:52:10;10.55;;;3.50;;
35602;SDS011;21725;50.836;4.368;2023-02-28T11:55:47;5.28;;;3.50;;
35602;SDS011;21725;50.836;4.368;2023-02-28T11:58:59;4.70;;;2.78;;
35602;SDS011;21725;50.836;4.368;2023-02-28T12:12:00;7.90;;;2.97;;
35602;SDS011;21725;50.836;4.368;2023-02-28T12:15:21;8.45;;;3.42;;
35602;SDS011;21725;50.836;4.368;2023-02-28T12:18:41;6.55;;;3.40;;
35602;SDS011;21725;50.836;4.368;2023-02-28T12:28:46;7.35;;;3.35;;
35602;SDS011;21725;50.836;4.368;2023-02-28T12:35:10;15.35;;;4.45;;
35602;SDS011;21725;50.836;4.368;2023-02-28T12:38:17;14.25;;;4.45;;
35602;SDS011;21725;50.836;4.368;2023-02-28T12:41:33;10.70;;;3.35;;
35602;SDS011;21725;50.836;4.368;2023-02-28T12:44:46;10.00;;;3.38;;
35602;SDS011;21725;50.836;4.368;2023-02-28T12:48:03;10.10;;;3.38;;
35602;SDS011;21725;50.836;4.368;2023-02-28T12:51:07;3.85;;;2.70;;
35602;SDS011;21725;50.836;4.368;2023-02-28T13:00:20;5.45;;;2.33;;
35602;SDS011;21725;50.836;4.368;2023-02-28T13:09:52;8.00;;;2.70;;
35602;SDS011;21725;50.836;4.368;2023-02-28T13:12:54;5.00;;;2.55;;
35602;SDS011;21725;50.836;4.368;2023-02-28T13:16:06;7.40;;;3.38;;
35602;SDS011;21725;50.836;4.368;2023-02-28T13:19:09;4.80;;;3.10;;
35602;SDS011;21725;50.836;4.368;2023-02-28T13:38:21;6.30;;;2.80;;
35602;SDS011;21725;50.836;4.368;2023-02-28T13:44:30;5.32;;;3.55;;
35602;SDS011;21725;50.836;4.368;2023-02-28T13:48:17;7.55;;;2.95;;
35602;SDS011;21725;50.836;4.368;2023-02-28T13:51:37;5.65;;;3.17;;
35602;SDS011;21725;50.836;4.368;2023-02-28T14:04:46;6.18;;;3.28;;
35602;SDS011;21725;50.836;4.368;2023-02-28T14:08:04;7.05;;;3.20;;
35602;SDS011;21725;50.836;4.368;2023-02-28T14:11:08;10.30;;;3.50;;
35602;SDS011;21725;50.836;4.368;2023-02-28T14:17:36;6.18;;;3.40;;
35602;SDS011;21725;50.836;4.368;2023-02-28T14:20:37;95.03;;;11.70;;
35602;SDS011;21725;50.836;4.368;2023-02-28T14:23:47;7.35;;;3.42;;
35602;SDS011;21725;50.836;4.368;2023-02-28T14:27:24;7.50;;;3.42;;
35602;SDS011;21725;50.836;4.368;2023-02-28T14:30:43;6.53;;;3.08;;
35602;SDS011;21725;50.836;4.368;2023-02-28T14:37:20;6.57;;;3.50;;
35602;SDS011;21725;50.836;4.368;2023-02-28T14:40:30;4.32;;;2.58;;
35602;SDS011;21725;50.836;4.368;2023-02-28T14:43:34;9.95;;;2.75;;
35602;SDS011;21725;50.836;4.368;2023-02-28T14:46:36;11.77;;;3.17;;
35602;SDS011;21725;50.836;4.368;2023-02-28T14:49:42;7.78;;;2.67;;
35602;SDS011;21725;50.836;4.368;2023-02-28T14:52:45;28.92;;;6.63;;
35602;SDS011;21725;50.836;4.368;2023-02-28T14:55:46;6.57;;;2.67;;
35602;SDS011;21725;50.836;4.368;2023-02-28T14:58:55;5.63;;;2.80;;
35602;SDS011;21725;50.836;4.368;2023-02-28T15:05:36;4.45;;;3.25;;
35602;SDS011;21725;50.836;4.368;2023-02-28T15:08:36;7.65;;;3.00;;
35602;SDS011;21725;50.836;4.368;2023-02-28T15:11:38;8.82;;;3.33;;
35602;SDS011;21725;50.836;4.368;2023-02-28T15:14:39;6.93;;;3.50;;
35602;SDS011;21725;50.836;4.368;2023-02-28T15:17:48;5.32;;;3.15;;
35602;SDS011;21725;50.836;4.368;2023-02-28T15:20:52;5.70;;;3.20;;
35602;SDS011;21725;50.836;4.368;2023-02-28T15:23:54;4.93;;;3.13;;
35602;SDS011;21725;50.836;4.368;2023-02-28T15:30:07;10.43;;;4.40;;
35602;SDS011;21725;50.836;4.368;2023-02-28T15:36:19;8.15;;;3.38;;
35602;SDS011;21725;50.836;4.368;2023-02-28T15:39:25;6.80;;;3.35;;
35602;SDS011;21725;50.836;4.368;2023-02-28T15:42:28;5.97;;;2.97;;
35602;SDS011;21725;50.836;4.368;2023-02-28T15:45:37;5.68;;;3.50;;
35602;SDS011;21725;50.836;4.368;2023-02-28T15:48:45;5.65;;;3.20;;
35602;SDS011;21725;50.836;4.368;2023-02-28T15:51:55;6.63;;;3.65;;
35602;SDS011;21725;50.836;4.368;2023-02-28T15:54:58;3.67;;;2.63;;
35602;SDS011;21725;50.836;4.368;2023-02-28T15:58:07;4.60;;;3.17;;
35602;SDS011;21725;50.836;4.368;2023-02-28T16:04:19;4.22;;;2.67;;
35602;SDS011;21725;50.836;4.368;2023-02-28T16:07:20;6.32;;;3.60;;
35602;SDS011;21725;50.836;4.368;2023-02-28T16:10:21;5.95;;;3.38;;
35602;SDS011;21725;50.836;4.368;2023-02-28T16:13:25;4.22;;;2.95;;
35602;SDS011;21725;50.836;4.368;2023-02-28T16:16:41;9.50;;;3.17;;
35602;SDS011;21725;50.836;4.368;2023-02-28T16:19:44;6.28;;;3.30;;
35602;SDS011;21725;50.836;4.368;2023-02-28T16:22:44;5.53;;;2.85;;
35602;SDS011;21725;50.836;4.368;2023-02-28T16:25:45;5.55;;;3.60;;
35602;SDS011;21725;50.836;4.368;2023-02-28T16:28:49;5.45;;;3.83;;
35602;SDS011;21725;50.836;4.368;2023-02-28T16:31:51;6.20;;;3.55;;
35602;SDS011;21725;50.836;4.368;2023-02-28T16:34:53;7.13;;;3.58;;
35602;SDS011;21725;50.836;4.368;2023-02-28T16:37:54;17.67;;;4.03;;
35602;SDS011;21725;50.836;4.368;2023-02-28T16:40:55;6.63;;;3.53;;
35602;SDS011;21725;50.836;4.368;2023-02-28T16:43:58;7.07;;;3.00;;
35602;SDS011;21725;50.836;4.368;2023-02-28T16:47:00;5.43;;;3.00;;
35602;SDS011;21725;50.836;4.368;2023-02-28T16:50:05;5.95;;;3.22;;
35602;SDS011;21725;50.836;4.368;2023-02-28T16:53:13;6.45;;;3.40;;
35602;SDS011;21725;50.836;4.368;2023-02-28T16:56:22;5.32;;;3.30;;
35602;SDS011;21725;50.836;4.368;2023-02-28T16:59:24;5.20;;;3.05;;
35602;SDS011;21725;50.836;4.368;2023-02-28T17:22:53;6.55;;;3.65;;
35602;SDS011;21725;50.836;4.368;2023-02-28T17:25:54;11.05;;;4.55;;
35602;SDS011;21725;50.836;4.368;2023-02-28T17:28:56;8.88;;;3.88;;
35602;SDS011;21725;50.836;4.368;2023-02-28T17:31:57;6.65;;;3.70;;
35602;SDS011;21725;50.836;4.368;2023-02-28T17:34:58;4.55;;;3.38;;
35602;SDS011;21725;50.836;4.368;2023-02-28T17:37:58;4.90;;;2.78;;
35602;SDS011;21725;50.836;4.368;2023-02-28T17:40:59;7.03;;;3.60;;
35602;SDS011;21725;50.836;4.368;2023-02-28T17:44:00;7.95;;;3.85;;
35602;SDS011;21725;50.836;4.368;2023-02-28T17:47:01;6.22;;;3.40;;
35602;SDS011;21725;50.836;4.368;2023-02-28T17:50:01;8.30;;;3.38;;
35602;SDS011;21725;50.836;4.368;2023-02-28T17:53:03;4.85;;;3.25;;
35602;SDS011;21725;50.836;4.368;2023-02-28T17:56:03;5.30;;;2.90;;
35602;SDS011;21725;50.836;4.368;2023-02-28T17:59:05;5.40;;;3.33;;
35602;SDS011;21725;50.836;4.368;2023-02-28T18:02:09;5.47;;;2.85;;
35602;SDS011;21725;50.836;4.368;2023-02-28T18:05:12;5.68;;;4.20;;
35602;SDS011;21725;50.836;4.368;2023-02-28T18:08:13;6.20;;;3.63;;
35602;SDS011;21725;50.836;4.368;2023-02-28T18:11:15;8.30;;;3.88;;
35602;SDS011;21725;50.836;4.368;2023-02-28T18:14:19;7.95;;;4.22;;
35602;SDS011;21725;50.836;4.368;2023-02-28T18:17:23;7.68;;;4.25;;
35602;SDS011;21725;50.836;4.368;2023-02-28T18:20:24;6.07;;;3.45;;
35602;SDS011;21725;50.836;4.368;2023-02-28T18:23:25;6.32;;;3.30;;
35602;SDS011;21725;50.836;4.368;2023-02-28T18:26:26;7.18;;;4.05;;
35602;SDS011;21725;50.836;4.368;2023-02-28T18:29:27;6.03;;;3.65;;
35602;SDS011;21725;50.836;4.368;2023-02-28T18:32:29;7.25;;;3.42;;
35602;SDS011;21725;50.836;4.368;2023-02-28T18:35:30;11.55;;;8.00;;
35602;SDS011;21725;50.836;4.368;2023-02-28T18:38:35;7.50;;;4.28;;
35602;SDS011;21725;50.836;4.368;2023-02-28T18:41:36;9.73;;;4.53;;
35602;SDS011;21725;50.836;4.368;2023-02-28T18:44:38;6.75;;;4.38;;
35602;SDS011;21725;50.836;4.368;2023-02-28T18:47:41;7.95;;;4.70;;
35602;SDS011;21725;50.836;4.368;2023-02-28T18:50:42;9.00;;;5.20;;
35602;SDS011;21725;50.836;4.368;2023-02-28T18:53:43;7.47;;;4.40;;
35602;SDS011;21725;50.836;4.368;2023-02-28T18:56:44;7.38;;;4.25;;
35602;SDS011;21725;50.836;4.368;2023-02-28T18:59:45;7.70;;;4.45;;
35602;SDS011;21725;50.836;4.368;2023-02-28T19:02:45;8.93;;;4.88;;
35602;SDS011;21725;50.836;4.368;2023-02-28T19:05:46;10.57;;;4.63;;
35602;SDS011;21725;50.836;4.368;2023-02-28T19:08:54;10.25;;;4.18;;
35602;SDS011;21725;50.836;4.368;2023-02-28T19:11:55;7.45;;;4.55;;
35602;SDS011;21725;50.836;4.368;2023-02-28T19:14:56;7.70;;;5.20;;
35602;SDS011;21725;50.836;4.368;2023-02-28T19:17:57;10.23;;;4.47;;
35602;SDS011;21725;50.836;4.368;2023-02-28T19:20:58;8.52;;;4.05;;
35602;SDS011;21725;50.836;4.368;2023-02-28T19:24:00;7.60;;;4.13;;
35602;SDS011;21725;50.836;4.368;2023-02-28T19:27:02;9.27;;;4.80;;
35602;SDS011;21725;50.836;4.368;2023-02-28T19:30:06;6.45;;;4.25;;
35602;SDS011;21725;50.836;4.368;2023-02-28T19:33:07;8.43;;;5.22;;
35602;SDS011;21725;50.836;4.368;2023-02-28T19:36:08;10.65;;;4.93;;
35602;SDS011;21725;50.836;4.368;2023-02-28T19:39:11;8.40;;;4.45;;
35602;SDS011;21725;50.836;4.368;2023-02-28T19:42:13;7.40;;;4.88;;
35602;SDS011;21725;50.836;4.368;2023-02-28T19:45:16;10.38;;;4.47;;
35602;SDS011;21725;50.836;4.368;2023-02-28T19:48:17;9.13;;;5.32;;
35602;SDS011;21725;50.836;4.368;2023-02-28T19:51:23;8.85;;;4.28;;
35602;SDS011;21725;50.836;4.368;2023-02-28T19:54:24;8.32;;;5.18;;
35602;SDS011;21725;50.836;4.368;2023-02-28T19:57:26;7.97;;;4.80;;
35602;SDS011;21725;50.836;4.368;2023-02-28T20:00:27;8.82;;;5.85;;
35602;SDS011;21725;50.836;4.368;2023-02-28T20:03:27;8.13;;;5.07;;
35602;SDS011;21725;50.836;4.368;2023-02-28T20:06:29;12.02;;;5.95;;
35602;SDS011;21725;50.836;4.368;2023-02-28T20:09:31;11.48;;;5.28;;
35602;SDS011;21725;50.836;4.368;2023-02-28T20:12:32;10.98;;;5.72;;
35602;SDS011;21725;50.836;4.368;2023-02-28T20:15:32;11.43;;;6.53;;
35602;SDS011;21725;50.836;4.368;2023-02-28T20:18:33;10.77;;;6.05;;
35602;SDS011;21725;50.836;4.368;2023-02-28T20:21:35;10.93;;;6.13;;
35602;SDS011;21725;50.836;4.368;2023-02-28T20:24:35;11.18;;;6.65;;
35602;SDS011;21725;50.836;4.368;2023-02-28T20:27:36;9.65;;;6.20;;
35602;SDS011;21725;50.836;4.368;2023-02-28T20:30:37;11.70;;;6.65;;
35602;SDS011;21725;50.836;4.368;2023-02-28T20:33:39;9.95;;;5.63;;
35602;SDS011;21725;50.836;4.368;2023-02-28T20:36:41;9.93;;;5.57;;
35602;SDS011;21725;50.836;4.368;2023-02-28T20:39:41;11.90;;;6.18;;
35602;SDS011;21725;50.836;4.368;2023-02-28T20:42:42;7.88;;;5.43;;
35602;SDS011;21725;50.836;4.368;2023-02-28T20:45:49;11.50;;;5.80;;
35602;SDS011;21725;50.836;4.368;2023-02-28T20:48:51;7.90;;;5.70;;
35602;SDS011;21725;50.836;4.368;2023-02-28T20:51:52;8.35;;;5.57;;
35602;SDS011;21725;50.836;4.368;2023-02-28T20:54:53;10.35;;;6.03;;
35602;SDS011;21725;50.836;4.368;2023-02-28T20:57:53;8.95;;;5.63;;
35602;SDS011;21725;50.836;4.368;2023-02-28T21:01:08;10.23;;;6.05;;
35602;SDS011;21725;50.836;4.368;2023-02-28T21:04:17;9.15;;;5.60;;
35602;SDS011;21725;50.836;4.368;2023-02-28T21:07:17;7.60;;;5.43;;
35602;SDS011;21725;50.836;4.368;2023-02-28T21:10:18;11.82;;;5.97;;
35602;SDS011;21725;50.836;4.368;2023-02-28T21:13:19;9.35;;;5.72;;
35602;SDS011;21725;50.836;4.368;2023-02-28T21:16:23;9.18;;;6.45;;
35602;SDS011;21725;50.836;4.368;2023-02-28T21:19:25;11.07;;;6.40;;
35602;SDS011;21725;50.836;4.368;2023-02-28T21:22:26;10.57;;;5.97;;
35602;SDS011;21725;50.836;4.368;2023-02-28T21:25:27;10.48;;;6.13;;
35602;SDS011;21725;50.836;4.368;2023-02-28T21:28:28;9.27;;;5.82;;
35602;SDS011;21725;50.836;4.368;2023-02-28T21:31:30;9.60;;;6.38;;
35602;SDS011;21725;50.836;4.368;2023-02-28T21:34:32;11.60;;;6.45;;
35602;SDS011;21725;50.836;4.368;2023-02-28T21:37:33;11.38;;;5.22;;
35602;SDS011;21725;50.836;4.368;2023-02-28T21:40:37;12.90;;;5.60;;
35602;SDS011;21725;50.836;4.368;2023-02-28T21:43:38;14.70;;;7.20;;
35602;SDS011;21725;50.836;4.368;2023-02-28T21:46:39;11.25;;;6.35;;